Time;durP1;ratioP1;P1;durP2;ratioP2;P2;SDS_P1;SDS_P2;PMS_P1;PMS_P2;Temp;Humidity;BMP_temperature;BMP_pressure;BME280_temperature;BME280_humidity;BME280_pressure;Samples;Min_cycle;Max_cycle;Signal;HPM_P1;HPM_P2
2021/03/18 00:01:41;;;;;;;14.90;11.40;;;5.50;99.90;;;;;;5100708;28;20555;-68
2021/03/18 00:04:08;;;;;;;13.00;9.75;;;5.40;99.90;;;;;;5100478;28;20193;-68
2021/03/18 00:06:35;;;;;;;12.95;10.30;;;5.30;99.90;;;;;;5099299;28;20172;-67
2021/03/18 00:09:01;;;;;;;15.18;10.45;;;5.30;99.90;;;;;;5100342;28;20662;-69
2021/03/18 00:11:27;;;;;;;15.55;10.50;;;5.40;99.90;;;;;;5100691;28;20164;-67
2021/03/18 00:13:53;;;;;;;14.35;10.20;;;5.30;99.90;;;;;;5100279;28;20571;-66
2021/03/18 00:16:19;;;;;;;16.33;10.87;;;5.40;99.90;;;;;;5100557;28;20179;-69
2021/03/18 00:18:50;;;;;;;13.10;10.70;;;5.40;99.90;;;;;;5100299;28;20204;-68
2021/03/18 00:21:17;;;;;;;13.05;9.95;;;5.40;99.90;;;;;;5100505;28;20261;-69
2021/03/18 00:23:43;;;;;;;12.00;9.15;;;5.40;99.90;;;;;;5098860;28;20200;-70
2021/03/18 00:26:09;;;;;;;14.07;9.83;;;5.50;99.90;;;;;;5100205;28;20169;-69
2021/03/18 00:28:36;;;;;;;13.93;10.05;;;5.40;99.90;;;;;;5100200;28;20705;-69
2021/03/18 00:31:03;;;;;;;14.07;9.90;;;5.50;99.90;;;;;;5100280;28;20597;-68
2021/03/18 00:33:29;;;;;;;15.98;10.05;;;5.40;99.90;;;;;;5098853;28;20205;-68
2021/03/18 00:35:56;;;;;;;13.03;10.10;;;5.50;99.90;;;;;;5099368;28;20180;-67
2021/03/18 00:38:22;;;;;;;11.40;9.50;;;5.40;99.90;;;;;;5100054;28;20662;-68
2021/03/18 00:40:51;;;;;;;13.95;10.10;;;5.50;99.90;;;;;;5098743;28;20220;-69
2021/03/18 00:43:19;;;;;;;12.60;9.80;;;5.50;99.90;;;;;;5099984;28;20223;-68
2021/03/18 00:45:47;;;;;;;12.15;9.40;;;5.40;99.90;;;;;;5098752;28;20241;-65
2021/03/18 00:48:14;;;;;;;13.88;10.10;;;5.40;99.90;;;;;;5100001;28;20286;-65
2021/03/18 00:50:47;;;;;;;12.30;9.65;;;5.40;99.90;;;;;;5100033;28;20171;-65
2021/03/18 00:53:19;;;;;;;13.60;9.38;;;5.30;99.90;;;;;;5100307;28;20196;-65
2021/03/18 00:55:44;;;;;;;11.00;9.13;;;5.40;99.90;;;;;;5100081;28;20211;-67
2021/03/18 00:58:10;;;;;;;12.47;9.20;;;5.30;99.90;;;;;;5098689;28;20673;-65
2021/03/18 01:00:44;;;;;;;12.60;9.20;;;5.40;99.90;;;;;;5098610;28;20219;-65
2021/03/18 01:03:11;;;;;;;15.88;10.90;;;5.40;99.90;;;;;;5099846;28;20196;-69
2021/03/18 01:05:49;;;;;;;11.30;10.07;;;5.40;99.90;;;;;;5097755;28;20630;-69
2021/03/18 01:08:16;;;;;;;10.70;9.18;;;5.40;99.90;;;;;;5095003;28;20215;-68
2021/03/18 01:11:05;;;;;;;10.50;8.65;;;5.30;99.90;;;;;;5096654;28;20191;-69
2021/03/18 01:13:31;;;;;;;13.98;9.45;;;5.30;99.90;;;;;;5096610;28;20192;-69
2021/03/18 01:16:19;;;;;;;17.02;11.60;;;5.40;99.90;;;;;;5096779;28;20203;-68
2021/03/18 01:19:09;;;;;;;14.80;10.55;;;5.30;99.90;;;;;;5096486;28;20189;-69
2021/03/18 01:21:42;;;;;;;15.73;12.32;;;5.30;99.90;;;;;;5096774;28;20220;-70
2021/03/18 01:24:09;;;;;;;19.10;12.43;;;5.30;99.90;;;;;;5096617;28;20188;-70
2021/03/18 01:26:35;;;;;;;20.10;12.88;;;5.30;99.90;;;;;;5095177;28;20177;-67
2021/03/18 01:29:01;;;;;;;23.00;14.17;;;5.30;99.90;;;;;;5096267;28;20200;-69
2021/03/18 01:31:28;;;;;;;22.63;13.53;;;5.30;99.90;;;;;;5096575;28;20392;-68
2021/03/18 01:33:53;;;;;;;17.10;10.93;;;5.30;99.90;;;;;;5096166;28;20433;-69
2021/03/18 01:36:22;;;;;;;15.83;10.97;;;5.30;99.90;;;;;;5096354;28;20185;-68
2021/03/18 01:38:47;;;;;;;15.95;11.35;;;5.30;99.90;;;;;;5096005;28;20605;-68
2021/03/18 01:41:14;;;;;;;11.87;9.00;;;5.20;99.90;;;;;;5094813;28;20311;-69
2021/03/18 01:43:41;;;;;;;14.93;9.60;;;5.30;99.90;;;;;;5095907;28;20621;-68
2021/03/18 01:46:07;;;;;;;15.32;10.77;;;5.20;99.90;;;;;;5096281;28;20168;-67
2021/03/18 01:48:33;;;;;;;15.57;11.05;;;5.20;99.90;;;;;;5095821;28;20200;-70
2021/03/18 01:51:00;;;;;;;12.77;10.50;;;5.10;99.90;;;;;;5096116;28;20246;-68
2021/03/18 01:53:27;;;;;;;13.43;10.05;;;5.10;99.90;;;;;;5095692;28;20204;-70
2021/03/18 01:55:55;;;;;;;13.85;10.77;;;5.10;99.90;;;;;;5095941;28;20171;-68
2021/03/18 01:58:21;;;;;;;14.15;10.00;;;5.10;99.90;;;;;;5095566;28;20208;-68
2021/03/18 02:00:51;;;;;;;16.95;10.50;;;5.20;99.90;;;;;;5095739;28;20668;-68
2021/03/18 02:03:17;;;;;;;12.57;9.68;;;5.10;99.90;;;;;;5094335;28;20200;-68
2021/03/18 02:05:43;;;;;;;13.10;10.73;;;5.20;99.90;;;;;;5095487;28;20164;-68
2021/03/18 02:08:09;;;;;;;13.93;10.00;;;5.20;99.90;;;;;;5095546;28;20829;-69
2021/03/18 02:10:37;;;;;;;11.85;9.13;;;5.20;99.90;;;;;;5095580;28;20165;-70
2021/03/18 02:13:04;;;;;;;14.82;9.35;;;5.20;99.90;;;;;;5095431;28;20192;-68
2021/03/18 02:15:58;;;;;;;15.25;9.98;;;5.10;99.90;;;;;;5095464;28;20165;-68
2021/03/18 02:18:47;;;;;;;12.50;9.88;;;5.10;99.90;;;;;;5094743;28;20250;-68
2021/03/18 02:21:36;;;;;;;12.45;9.95;;;5.10;99.90;;;;;;5095136;28;20211;-68
2021/03/18 02:24:36;;;;;;;15.02;10.88;;;5.10;99.90;;;;;;5093933;28;20201;-67
2021/03/18 02:27:20;;;;;;;13.10;10.43;;;5.10;99.90;;;;;;5095715;28;20183;-68
2021/03/18 02:30:21;;;;;;;13.85;10.35;;;5.00;99.90;;;;;;5095107;28;20566;-68
2021/03/18 02:32:55;;;;;;;13.82;10.30;;;5.00;99.90;;;;;;5081403;28;20225;-68
2021/03/18 02:35:32;;;;;;;12.05;9.50;;;5.10;99.90;;;;;;5093874;28;20227;-68
2021/03/18 02:37:57;;;;;;;12.40;9.80;;;5.00;99.90;;;;;;5095058;28;20200;-68
2021/03/18 02:40:25;;;;;;;11.30;8.90;;;5.00;99.90;;;;;;5093707;28;20204;-69
2021/03/18 02:42:58;;;;;;;12.23;9.40;;;5.10;99.90;;;;;;5094754;28;20701;-71
2021/03/18 02:45:27;;;;;;;17.27;10.85;;;5.00;99.90;;;;;;5094865;28;20504;-68
2021/03/18 02:47:57;;;;;;;14.48;10.30;;;5.00;99.90;;;;;;5094752;28;20241;-68
2021/03/18 02:50:24;;;;;;;14.73;10.65;;;5.00;99.90;;;;;;5094792;28;20177;-69
2021/03/18 02:52:51;;;;;;;12.95;10.05;;;5.00;99.90;;;;;;5094555;28;20589;-68
2021/03/18 02:55:18;;;;;;;15.10;10.90;;;4.90;99.90;;;;;;5094698;28;20168;-68
2021/03/18 02:57:45;;;;;;;13.75;10.20;;;4.90;99.90;;;;;;5094554;28;20187;-68
2021/03/18 03:00:12;;;;;;;13.32;9.90;;;4.90;99.90;;;;;;5094405;28;20208;-70
2021/03/18 03:02:39;;;;;;;14.27;10.30;;;4.80;99.90;;;;;;5094443;28;20185;-69
2021/03/18 03:05:07;;;;;;;14.98;10.88;;;4.90;99.90;;;;;;5093058;28;20172;-68
2021/03/18 03:07:34;;;;;;;14.45;10.63;;;4.90;99.90;;;;;;5093030;28;20185;-67
2021/03/18 03:10:01;;;;;;;14.90;11.07;;;4.80;99.90;;;;;;5094452;28;20255;-68
2021/03/18 03:12:30;;;;;;;10.68;9.48;;;4.90;99.90;;;;;;5094907;28;20226;-68
2021/03/18 03:14:57;;;;;;;14.65;10.38;;;4.80;99.90;;;;;;5093053;28;20267;-69
2021/03/18 03:17:25;;;;;;;17.98;10.50;;;4.80;99.90;;;;;;5094734;28;20188;-69
2021/03/18 03:19:53;;;;;;;13.60;10.10;;;4.80;99.90;;;;;;5094064;28;20613;-68
2021/03/18 03:22:20;;;;;;;12.82;10.52;;;4.80;99.90;;;;;;5094718;28;20539;-68
2021/03/18 03:24:47;;;;;;;13.70;10.55;;;4.80;99.90;;;;;;5094112;28;20203;-68
2021/03/18 03:27:14;;;;;;;11.80;9.88;;;4.80;99.90;;;;;;5094697;28;20260;-68
2021/03/18 03:29:42;;;;;;;14.20;9.82;;;4.80;99.90;;;;;;5092226;28;20199;-68
2021/03/18 03:32:09;;;;;;;13.88;10.65;;;4.80;99.90;;;;;;5094036;28;20713;-68
2021/03/18 03:34:34;;;;;;;14.07;10.38;;;4.80;99.90;;;;;;5093972;28;20198;-69
2021/03/18 03:37:01;;;;;;;13.00;9.70;;;4.90;99.90;;;;;;5094401;28;20180;-68
2021/03/18 03:39:27;;;;;;;13.07;9.98;;;4.80;99.90;;;;;;5093873;28;20443;-68
2021/03/18 03:41:53;;;;;;;13.57;10.20;;;4.80;99.90;;;;;;5092521;28;20236;-68
2021/03/18 03:44:19;;;;;;;13.87;10.87;;;4.80;99.90;;;;;;5093889;28;20609;-68
2021/03/18 03:46:45;;;;;;;15.20;10.35;;;4.90;99.90;;;;;;5093754;28;20646;-69
2021/03/18 03:49:11;;;;;;;14.15;10.27;;;4.90;99.90;;;;;;5092463;28;20310;-68
2021/03/18 03:52:03;;;;;;;12.83;11.20;;;4.90;99.90;;;;;;5094093;28;20251;-69
2021/03/18 03:54:31;;;;;;;19.67;9.52;;;5.00;99.90;;;;;;5092459;28;20212;-69
2021/03/18 03:57:16;;;;;;;12.90;11.07;;;4.90;99.90;;;;;;5094537;28;20179;-67
2021/03/18 03:59:44;;;;;;;15.00;10.02;;;4.80;99.90;;;;;;5093660;28;20200;-67
2021/03/18 04:02:11;;;;;;;11.23;8.82;;;4.90;99.90;;;;;;5094145;28;20208;-68
2021/03/18 04:04:41;;;;;;;11.50;8.52;;;4.90;99.90;;;;;;5093583;28;20203;-68
2021/03/18 04:07:15;;;;;;;15.68;9.98;;;4.90;99.90;;;;;;5094139;28;20191;-68
2021/03/18 04:09:43;;;;;;;12.80;10.38;;;4.90;99.90;;;;;;5093580;28;20197;-68
2021/03/18 04:12:11;;;;;;;14.48;10.38;;;4.90;99.90;;;;;;5092545;28;20195;-67
2021/03/18 04:14:39;;;;;;;11.18;8.32;;;4.90;99.90;;;;;;5093473;28;20209;-68
2021/03/18 04:17:11;;;;;;;13.98;9.75;;;4.90;99.90;;;;;;5092265;28;20184;-70
2021/03/18 04:19:38;;;;;;;14.00;9.15;;;5.00;99.90;;;;;;5093309;28;20223;-68
2021/03/18 04:22:05;;;;;;;11.35;9.02;;;5.00;99.90;;;;;;5093837;28;20669;-69
2021/03/18 04:24:32;;;;;;;10.05;8.52;;;5.00;99.90;;;;;;5093469;28;20661;-68
2021/03/18 04:26:58;;;;;;;15.52;9.88;;;5.10;99.90;;;;;;5094040;28;20689;-69
2021/03/18 04:29:24;;;;;;;12.70;9.13;;;5.10;99.90;;;;;;5092116;28;20253;-68
2021/03/18 04:31:52;;;;;;;12.23;9.30;;;5.00;99.90;;;;;;5093320;28;20180;-69
2021/03/18 04:34:18;;;;;;;13.05;8.93;;;5.10;99.90;;;;;;5093306;28;20688;-70
2021/03/18 04:36:44;;;;;;;12.55;9.50;;;5.10;99.90;;;;;;5093776;28;20626;-70
2021/03/18 04:39:12;;;;;;;11.70;8.70;;;5.10;99.90;;;;;;5093353;28;20204;-68
2021/03/18 04:41:38;;;;;;;11.52;8.60;;;5.50;99.90;;;;;;5094250;28;20251;-68
2021/03/18 04:44:05;;;;;;;10.45;8.73;;;6.20;99.90;;;;;;5097162;28;20677;-67
2021/03/18 04:46:32;;;;;;;12.02;8.80;;;6.50;99.90;;;;;;5097393;28;20573;-69
2021/03/18 04:49:00;;;;;;;11.27;8.95;;;6.70;99.90;;;;;;5097046;28;20185;-67
2021/03/18 04:51:26;;;;;;;12.15;8.70;;;6.60;99.90;;;;;;5097423;28;20180;-68
2021/03/18 04:53:52;;;;;;;12.27;9.02;;;7.10;99.90;;;;;;5096883;28;20570;-69
2021/03/18 04:56:20;;;;;;;11.87;9.00;;;7.20;99.90;;;;;;5096915;28;20243;-69
2021/03/18 04:58:47;;;;;;;11.85;8.10;;;7.40;99.90;;;;;;5096886;28;20403;-67
2021/03/18 05:01:15;;;;;;;11.23;8.10;;;7.80;99.90;;;;;;5095640;28;20608;-68
2021/03/18 05:03:43;;;;;;;14.15;10.38;;;7.90;99.90;;;;;;5096717;28;20192;-70
2021/03/18 05:06:09;;;;;;;12.38;9.45;;;7.60;99.90;;;;;;5095648;28;20287;-68
2021/03/18 05:08:37;;;;;;;13.40;8.53;;;7.40;99.90;;;;;;5096741;28;20290;-69
2021/03/18 05:11:03;;;;;;;9.25;7.00;;;8.00;99.90;;;;;;5095423;28;20416;-69
2021/03/18 05:13:30;;;;;;;13.57;8.20;;;8.40;99.90;;;;;;5095274;28;20299;-69
2021/03/18 05:15:57;;;;;;;11.77;8.82;;;8.60;99.90;;;;;;5096781;28;20645;-69
2021/03/18 05:18:25;;;;;;;13.60;9.23;;;8.60;99.90;;;;;;5096495;28;20242;-69
2021/03/18 05:20:52;;;;;;;14.05;9.85;;;8.50;99.90;;;;;;5096505;28;20266;-70
2021/03/18 05:23:18;;;;;;;13.00;9.13;;;8.50;99.90;;;;;;5096361;28;20231;-68
2021/03/18 05:25:45;;;;;;;13.20;9.20;;;8.70;99.90;;;;;;5096509;28;20212;-70
2021/03/18 05:28:12;;;;;;;11.18;9.25;;;8.30;99.90;;;;;;5092664;28;20419;-69
2021/03/18 05:30:38;;;;;;;16.45;8.95;;;8.00;99.90;;;;;;5095012;28;20176;-68
2021/03/18 05:33:04;;;;;;;15.15;10.80;;;7.90;99.90;;;;;;5095970;28;20203;-69
2021/03/18 05:35:31;;;;;;;13.70;9.50;;;8.00;99.90;;;;;;5096254;28;20204;-68
2021/03/18 05:37:57;;;;;;;15.65;9.40;;;7.60;99.90;;;;;;5096136;28;20213;-67
2021/03/18 05:40:23;;;;;;;11.65;8.30;;;7.80;99.90;;;;;;5096119;28;20349;-68
2021/03/18 05:42:50;;;;;;;13.23;8.40;;;8.10;99.90;;;;;;5095857;28;20320;-67
2021/03/18 05:45:18;;;;;;;17.23;9.13;;;8.60;99.90;;;;;;5096186;28;20476;-68
2021/03/18 05:47:44;;;;;;;11.65;8.63;;;9.00;99.90;;;;;;5094627;28;20231;-67
2021/03/18 05:50:17;;;;;;;11.68;7.07;;;9.20;99.90;;;;;;5095862;28;20177;-69
2021/03/18 05:52:43;;;;;;;12.23;8.68;;;9.40;99.90;;;;;;5095260;28;20168;-70
2021/03/18 05:55:10;;;;;;;11.23;7.63;;;9.60;99.90;;;;;;5095758;28;20271;-68
2021/03/18 05:57:36;;;;;;;14.07;8.85;;;9.80;99.90;;;;;;5095734;28;20607;-69
2021/03/18 06:00:08;;;;;;;11.52;8.20;;;10.00;99.90;;;;;;5095482;28;20522;-69
2021/03/18 06:02:34;;;;;;;12.38;8.38;;;10.10;99.90;;;;;;5094249;28;20176;-68
2021/03/18 06:05:06;;;;;;;13.23;10.02;;;10.20;99.90;;;;;;5095618;28;20173;-68
2021/03/18 06:07:32;;;;;;;11.48;7.78;;;10.30;99.90;;;;;;5094164;28;20215;-70
2021/03/18 06:09:58;;;;;;;12.27;8.55;;;10.30;99.90;;;;;;5095536;28;20180;-70
2021/03/18 06:12:24;;;;;;;10.60;9.30;;;10.40;99.90;;;;;;5095868;28;20196;-69
2021/03/18 06:14:49;;;;;;;16.90;10.70;;;10.50;99.90;;;;;;5095236;28;20564;-68
2021/03/18 06:17:16;;;;;;;12.87;9.80;;;10.40;99.90;;;;;;5095895;28;20435;-68
2021/03/18 06:19:43;;;;;;;15.52;10.05;;;10.20;99.90;;;;;;5095369;28;20708;-67
2021/03/18 06:22:08;;;;;;;14.00;9.52;;;9.80;99.90;;;;;;5096435;28;20216;-68
2021/03/18 06:24:48;;;;;;;29.57;17.07;;;10.00;99.90;;;;;;5115548;28;20274;-69
2021/03/18 06:27:23;;;;;;;16.33;11.02;;;10.00;99.90;;;;;;5116120;28;20172;-68
2021/03/18 06:29:48;;;;;;;13.70;10.55;;;9.80;99.90;;;;;;5114180;28;20206;-68
2021/03/18 06:32:14;;;;;;;13.63;10.20;;;9.30;99.90;;;;;;5114411;28;20511;-68
2021/03/18 06:34:49;;;;;;;18.83;11.63;;;7.50;99.90;;;;;;5114046;28;20199;-70
2021/03/18 06:37:37;;;;;;;16.15;10.82;;;6.40;99.90;;;;;;5116034;28;20236;-69
2021/03/18 06:40:05;;;;;;;11.40;9.85;;;5.70;99.90;;;;;;5109878;28;20180;-69
2021/03/18 06:42:31;;;;;;;13.70;10.80;;;5.40;99.90;;;;;;5094506;28;20239;-67
2021/03/18 06:45:27;;;;;;;16.17;11.52;;;5.40;99.90;;;;;;5093550;28;20225;-69
2021/03/18 06:47:55;;;;;;;14.98;10.55;;;5.20;99.90;;;;;;5093726;28;20716;-68
2021/03/18 06:50:28;;;;;;;15.88;12.48;;;5.00;99.90;;;;;;5094644;28;20190;-68
2021/03/18 06:52:54;;;;;;;14.52;10.60;;;5.10;99.90;;;;;;5094698;28;20207;-70
2021/03/18 06:55:27;;;;;;;15.57;11.83;;;5.00;99.90;;;;;;5094687;28;20187;-69
2021/03/18 06:58:12;;;;;;;15.55;11.98;;;4.90;99.90;;;;;;5093210;28;20235;-70
2021/03/18 07:00:38;;;;;;;18.40;11.85;;;4.90;99.90;;;;;;5094609;28;20208;-68
2021/03/18 07:03:04;;;;;;;15.37;11.37;;;4.90;99.90;;;;;;5094432;28;20204;-67
2021/03/18 07:05:37;;;;;;;15.07;12.13;;;4.80;99.90;;;;;;5093753;28;20180;-67
2021/03/18 07:08:03;;;;;;;16.90;12.45;;;4.80;99.90;;;;;;5094429;28;20481;-69
2021/03/18 07:10:35;;;;;;;17.55;10.93;;;4.70;99.90;;;;;;5093785;28;20168;-69
2021/03/18 07:13:18;;;;;;;17.40;12.45;;;4.70;99.90;;;;;;5092902;28;20204;-68
2021/03/18 07:15:45;;;;;;;17.88;11.80;;;4.80;99.90;;;;;;5094363;28;20176;-68
2021/03/18 07:18:12;;;;;;;16.38;11.88;;;4.90;99.90;;;;;;5094101;28;20303;-70
2021/03/18 07:20:38;;;;;;;16.63;12.30;;;4.90;99.90;;;;;;5094120;28;20212;-70
2021/03/18 07:23:16;;;;;;;14.43;11.83;;;4.90;99.90;;;;;;5093493;28;20631;-68
2021/03/18 07:25:46;;;;;;;15.45;11.55;;;4.90;99.90;;;;;;5094213;28;20779;-69
2021/03/18 07:28:14;;;;;;;14.05;11.50;;;4.90;99.90;;;;;;5093922;28;20219;-69
2021/03/18 07:30:41;;;;;;;14.88;11.77;;;5.00;99.90;;;;;;5094051;28;20176;-67
2021/03/18 07:33:08;;;;;;;16.08;12.35;;;5.10;99.90;;;;;;5093976;28;20192;-68
2021/03/18 07:35:35;;;;;;;16.35;12.05;;;5.20;99.90;;;;;;5093966;28;20173;-68
2021/03/18 07:38:02;;;;;;;17.05;12.35;;;5.40;99.90;;;;;;5093539;28;20200;-67
2021/03/18 07:40:29;;;;;;;18.52;13.10;;;5.50;99.90;;;;;;5092942;28;20302;-69
2021/03/18 07:42:56;;;;;;;17.17;11.63;;;5.60;99.90;;;;;;5090652;28;20236;-68
2021/03/18 07:45:25;;;;;;;15.45;12.07;;;5.60;99.90;;;;;;5093932;28;21206;-69
2021/03/18 07:47:52;;;;;;;17.02;11.90;;;5.70;99.90;;;;;;5091471;28;20196;-68
2021/03/18 07:50:24;;;;;;;16.13;11.95;;;5.90;99.90;;;;;;5093365;28;20176;-68
2021/03/18 07:52:50;;;;;;;15.40;11.68;;;6.00;99.90;;;;;;5093636;28;20688;-70
2021/03/18 07:55:18;;;;;;;15.57;12.25;;;5.90;99.90;;;;;;5092668;28;20192;-68
2021/03/18 07:57:49;;;;;;;15.18;11.48;;;6.00;99.90;;;;;;5093822;28;20191;-69
2021/03/18 08:00:17;;;;;;;15.20;12.13;;;6.10;99.90;;;;;;5092261;28;20179;-69
2021/03/18 08:02:43;;;;;;;14.40;11.77;;;6.20;99.90;;;;;;5092440;28;20189;-68
2021/03/18 08:05:09;;;;;;;15.90;11.80;;;6.10;99.90;;;;;;5092836;28;20182;-68
2021/03/18 08:07:48;;;;;;;16.98;12.45;;;6.20;99.90;;;;;;5093232;28;20280;-68
2021/03/18 08:10:33;;;;;;;16.83;11.98;;;6.30;99.90;;;;;;5093577;28;20176;-67
2021/03/18 08:13:00;;;;;;;16.83;12.80;;;6.40;99.90;;;;;;5112148;28;20680;-69
2021/03/18 08:15:31;;;;;;;17.45;11.98;;;6.40;99.90;;;;;;5113068;28;20175;-69
2021/03/18 08:18:16;;;;;;;15.32;11.48;;;6.50;99.90;;;;;;5103526;28;20261;-68
2021/03/18 08:20:58;;;;;;;15.35;11.98;;;6.50;99.90;;;;;;5097662;28;20677;-68
2021/03/18 08:23:27;;;;;;;16.38;12.77;;;6.60;99.90;;;;;;5095653;28;20208;-69
2021/03/18 08:26:03;;;;;;;15.40;11.70;;;6.60;99.90;;;;;;5097602;28;20256;-68
2021/03/18 08:28:55;;;;;;;16.17;11.20;;;6.70;99.90;;;;;;5096112;28;20208;-68
2021/03/18 08:31:42;;;;;;;14.25;11.52;;;6.70;99.90;;;;;;5096447;28;20184;-69
2021/03/18 08:34:08;;;;;;;15.05;11.95;;;6.90;99.90;;;;;;5091991;28;20277;-68
2021/03/18 08:37:00;;;;;;;16.83;12.20;;;6.70;99.90;;;;;;5096957;28;20187;-69
2021/03/18 08:39:50;;;;;;;13.32;10.18;;;7.30;99.90;;;;;;5090988;28;20216;-68
2021/03/18 08:42:27;;;;;;;13.68;10.73;;;7.20;99.90;;;;;;5088417;28;20267;-69
2021/03/18 08:44:54;;;;;;;13.18;10.65;;;6.80;99.90;;;;;;5092056;28;20218;-71
2021/03/18 08:47:20;;;;;;;10.65;8.82;;;7.00;99.90;;;;;;5094798;28;20180;-68
2021/03/18 08:49:46;;;;;;;11.50;9.40;;;7.20;99.90;;;;;;5092577;28;20551;-67
2021/03/18 08:52:17;;;;;;;11.63;9.20;;;7.40;99.90;;;;;;5092307;28;20186;-67
2021/03/18 08:54:48;;;;;;;13.90;9.43;;;7.30;99.90;;;;;;5091699;28;20283;-67
2021/03/18 08:57:26;;;;;;;11.10;9.48;;;7.50;99.90;;;;;;5095128;28;20193;-67
2021/03/18 08:59:55;;;;;;;13.95;10.10;;;7.50;99.90;;;;;;5091843;28;20242;-67
2021/03/18 09:02:34;;;;;;;10.07;8.90;;;7.50;99.90;;;;;;5100062;28;20672;-68
2021/03/18 09:05:11;;;;;;;11.75;8.10;;;7.50;99.90;;;;;;5096415;28;20184;-68
2021/03/18 09:07:37;;;;;;;11.82;10.02;;;7.40;99.90;;;;;;5093491;28;20184;-69
2021/03/18 09:10:24;;;;;;;10.75;8.63;;;7.30;99.90;;;;;;5089061;28;20195;-68
2021/03/18 09:12:53;;;;;;;13.35;9.93;;;7.50;99.90;;;;;;5093757;28;20196;-69
2021/03/18 09:15:38;;;;;;;12.60;10.07;;;7.70;99.90;;;;;;5092864;28;20915;-68
2021/03/18 09:18:20;;;;;;;11.10;8.27;;;7.70;99.90;;;;;;5093801;28;20197;-69
2021/03/18 09:20:54;;;;;;;12.35;9.13;;;7.60;99.90;;;;;;5091217;28;20589;-68
2021/03/18 09:23:23;;;;;;;13.32;10.98;;;7.80;99.90;;;;;;5099727;28;20208;-68
2021/03/18 09:25:51;;;;;;;10.15;8.63;;;8.00;99.90;;;;;;5084816;28;20755;-67
2021/03/18 09:28:18;;;;;;;14.77;11.05;;;8.00;99.90;;;;;;5088194;28;20225;-69
2021/03/18 09:30:46;;;;;;;12.40;9.48;;;7.80;99.90;;;;;;5093856;28;20187;-68
2021/03/18 09:33:15;;;;;;;13.32;9.68;;;7.90;99.90;;;;;;5103181;28;20195;-70
2021/03/18 09:35:41;;;;;;;10.90;9.80;;;8.10;99.90;;;;;;5086431;28;20176;-69
2021/03/18 09:38:15;;;;;;;9.17;7.80;;;8.10;99.90;;;;;;5091843;28;20568;-67
2021/03/18 09:40:41;;;;;;;10.45;8.00;;;8.00;99.90;;;;;;5090166;28;20818;-70
2021/03/18 09:43:06;;;;;;;9.70;7.73;;;7.90;99.90;;;;;;5093454;28;20242;-67
2021/03/18 09:45:32;;;;;;;14.60;9.23;;;8.20;99.90;;;;;;5093441;28;20249;-68
2021/03/18 09:47:58;;;;;;;10.97;9.07;;;8.00;99.90;;;;;;5094827;28;20688;-69
2021/03/18 09:50:27;;;;;;;11.75;9.35;;;7.80;99.90;;;;;;5096435;28;20510;-68
2021/03/18 09:53:08;;;;;;;11.98;8.88;;;8.20;99.90;;;;;;5097473;28;20211;-68
2021/03/18 09:55:33;;;;;;;11.32;7.80;;;7.90;99.90;;;;;;5097496;28;20180;-68
2021/03/18 09:58:07;;;;;;;9.07;7.10;;;8.00;99.90;;;;;;5096122;28;20227;-67
2021/03/18 10:00:33;;;;;;;8.20;6.80;;;8.10;99.90;;;;;;5103497;28;20220;-68
2021/03/18 10:03:00;;;;;;;9.70;6.90;;;8.40;99.90;;;;;;5105562;28;20187;-70
2021/03/18 10:05:26;;;;;;;11.75;8.65;;;8.20;99.90;;;;;;5110208;28;20408;-70
2021/03/18 10:07:56;;;;;;;11.13;8.23;;;7.90;99.90;;;;;;5100805;28;20211;-68
2021/03/18 10:10:22;;;;;;;4.80;4.13;;;8.00;99.90;;;;;;5096087;28;20218;-67
2021/03/18 10:12:50;;;;;;;4.82;3.55;;;8.20;99.90;;;;;;5105520;28;20216;-68
2021/03/18 10:15:19;;;;;;;7.15;3.13;;;8.60;98.60;;;;;;5105201;28;20183;-69
2021/03/18 10:17:45;;;;;;;3.88;3.15;;;9.20;97.60;;;;;;5115085;28;20171;-67
2021/03/18 10:20:16;;;;;;;7.55;5.40;;;8.80;97.10;;;;;;5112644;28;20175;-68
2021/03/18 10:22:49;;;;;;;4.35;2.80;;;8.90;97.10;;;;;;5099165;28;20262;-68
2021/03/18 10:25:19;;;;;;;8.63;6.68;;;9.10;96.20;;;;;;5106563;28;20178;-69
2021/03/18 10:27:51;;;;;;;6.90;5.28;;;9.60;96.30;;;;;;5112045;28;20203;-69
2021/03/18 10:30:19;;;;;;;6.93;4.63;;;9.00;96.70;;;;;;5113057;28;20581;-67
2021/03/18 10:33:16;;;;;;;9.93;6.22;;;8.70;96.20;;;;;;5115199;28;20259;-68
2021/03/18 10:35:45;;;;;;;12.52;6.63;;;8.50;96.50;;;;;;5102811;28;20176;-70
2021/03/18 10:38:15;;;;;;;14.07;7.30;;;8.60;96.20;;;;;;5092712;28;20196;-68
2021/03/18 10:40:42;;;;;;;8.40;5.22;;;8.60;95.60;;;;;;5098567;28;20193;-68
2021/03/18 10:43:24;;;;;;;4.60;4.07;;;8.60;95.30;;;;;;5094142;28;20232;-68
2021/03/18 10:45:53;;;;;;;6.10;4.30;;;8.80;95.80;;;;;;5094179;28;20571;-68
2021/03/18 10:48:24;;;;;;;4.32;3.58;;;8.90;93.60;;;;;;5094319;28;20196;-69
2021/03/18 10:50:52;;;;;;;5.57;3.78;;;8.70;92.80;;;;;;5093418;28;20288;-68
2021/03/18 10:53:20;;;;;;;4.20;3.80;;;9.20;91.60;;;;;;5094035;28;20257;-68
2021/03/18 10:55:51;;;;;;;5.20;4.20;;;8.60;93.20;;;;;;5107697;28;20225;-70
2021/03/18 10:58:20;;;;;;;5.78;4.38;;;8.50;94.40;;;;;;5092455;28;20256;-68
2021/03/18 11:00:47;;;;;;;3.85;3.42;;;8.60;94.60;;;;;;5092256;28;20215;-70
2021/03/18 11:03:17;;;;;;;3.70;3.13;;;9.10;92.80;;;;;;5091028;28;20252;-70
2021/03/18 11:05:50;;;;;;;6.63;5.25;;;9.00;93.40;;;;;;5089507;28;20172;-70
2021/03/18 11:08:24;;;;;;;9.10;6.32;;;9.10;93.20;;;;;;5087934;28;20248;-70
2021/03/18 11:10:51;;;;;;;9.77;8.23;;;9.00;93.10;;;;;;5090371;28;20301;-68
2021/03/18 11:13:26;;;;;;;10.15;8.20;;;8.80;93.10;;;;;;5073086;28;20615;-68
2021/03/18 11:16:03;;;;;;;4.53;4.13;;;8.60;92.50;;;;;;5075812;28;20625;-69
2021/03/18 11:18:38;;;;;;;4.63;3.95;;;8.70;93.00;;;;;;5091941;28;20215;-68
2021/03/18 11:21:16;;;;;;;4.15;3.78;;;8.70;93.20;;;;;;5092597;28;20600;-69
2021/03/18 11:23:42;;;;;;;5.18;4.78;;;8.50;94.70;;;;;;5093208;28;20385;-68
2021/03/18 11:26:08;;;;;;;4.90;4.43;;;8.60;93.90;;;;;;5092959;28;20219;-68
2021/03/18 11:28:35;;;;;;;3.77;3.30;;;8.70;94.20;;;;;;5092627;28;20758;-70
2021/03/18 11:31:14;;;;;;;3.63;3.33;;;9.10;93.90;;;;;;5088747;28;20176;-68
2021/03/18 11:33:40;;;;;;;5.97;3.63;;;9.10;92.10;;;;;;5081867;28;20204;-69
2021/03/18 11:36:06;;;;;;;4.83;3.43;;;9.20;93.30;;;;;;5092095;28;20192;-69
2021/03/18 11:38:33;;;;;;;7.90;3.45;;;9.50;91.50;;;;;;5091370;28;20208;-68
2021/03/18 11:40:59;;;;;;;4.65;3.92;;;9.60;91.70;;;;;;5088264;28;20212;-68
2021/03/18 11:43:26;;;;;;;5.40;4.28;;;9.50;90.80;;;;;;5091259;28;20239;-69
2021/03/18 11:45:52;;;;;;;5.20;4.60;;;9.70;91.50;;;;;;5092350;28;20179;-68
2021/03/18 11:48:18;;;;;;;5.20;4.70;;;9.30;91.10;;;;;;5092933;28;20204;-69
2021/03/18 11:50:44;;;;;;;10.60;7.00;;;9.50;91.70;;;;;;5090810;28;20184;-69
2021/03/18 11:53:10;;;;;;;26.60;14.70;;;9.70;91.60;;;;;;5097492;28;20611;-70
2021/03/18 11:55:38;;;;;;;5.47;4.50;;;9.50;91.60;;;;;;5091490;28;20448;-68
2021/03/18 11:58:04;;;;;;;6.68;4.93;;;9.30;92.60;;;;;;5088372;28;20208;-67
2021/03/18 12:00:33;;;;;;;5.63;4.28;;;9.10;92.20;;;;;;5092489;28;20530;-69
2021/03/18 12:03:00;;;;;;;6.30;5.07;;;8.90;92.90;;;;;;5090638;28;20738;-70
2021/03/18 12:05:26;;;;;;;6.28;4.93;;;8.80;91.80;;;;;;5092281;28;20187;-68
2021/03/18 12:07:52;;;;;;;7.03;5.05;;;8.40;92.10;;;;;;5090494;28;20736;-69
2021/03/18 12:10:18;;;;;;;43.85;18.92;;;8.40;93.30;;;;;;5091518;28;20176;-68
2021/03/18 12:12:45;;;;;;;9.77;6.50;;;8.50;93.60;;;;;;5092385;28;20229;-70
2021/03/18 12:15:12;;;;;;;7.93;7.13;;;8.60;92.90;;;;;;5092452;28;20218;-71
2021/03/18 12:17:39;;;;;;;9.77;6.90;;;8.70;92.40;;;;;;5092164;28;20541;-71
2021/03/18 12:20:09;;;;;;;7.25;6.55;;;9.00;92.00;;;;;;5085960;28;20188;-70
2021/03/18 12:22:35;;;;;;;5.80;4.32;;;8.50;93.10;;;;;;5091829;28;20227;-70
2021/03/18 12:25:02;;;;;;;6.55;5.95;;;8.50;92.80;;;;;;5090063;28;20177;-69
2021/03/18 12:27:28;;;;;;;6.50;5.80;;;8.40;92.60;;;;;;5091144;28;20192;-68
2021/03/18 12:29:54;;;;;;;8.33;5.97;;;8.40;92.80;;;;;;5092105;28;20204;-71
2021/03/18 12:32:20;;;;;;;5.87;5.37;;;8.50;92.80;;;;;;5089997;28;20434;-69
2021/03/18 12:34:46;;;;;;;5.05;4.55;;;8.50;92.80;;;;;;5090347;28;20283;-69
2021/03/18 12:37:11;;;;;;;16.23;10.60;;;8.50;92.50;;;;;;5089920;28;20218;-66
2021/03/18 12:39:37;;;;;;;11.40;8.47;;;8.50;91.50;;;;;;5088698;28;20283;-69
2021/03/18 12:42:02;;;;;;;8.60;7.40;;;8.50;92.60;;;;;;5091453;28;20599;-70
2021/03/18 12:44:29;;;;;;;10.03;7.00;;;8.50;94.40;;;;;;5091607;28;20266;-70
2021/03/18 12:46:54;;;;;;;7.93;7.13;;;8.40;96.00;;;;;;5091069;28;20180;-69
2021/03/18 12:49:20;;;;;;;8.70;6.33;;;8.20;95.00;;;;;;5089987;28;20576;-69
2021/03/18 12:51:46;;;;;;;8.10;6.87;;;8.20;97.20;;;;;;5091470;28;20182;-70
2021/03/18 12:54:11;;;;;;;8.87;7.23;;;8.20;96.40;;;;;;5092612;28;20212;-70
2021/03/18 12:56:38;;;;;;;8.67;7.80;;;8.20;96.30;;;;;;5091032;28;20230;-70
2021/03/18 12:59:03;;;;;;;13.95;7.78;;;8.00;96.90;;;;;;5100591;28;20211;-69